Time;durP1;ratioP1;P1;durP2;ratioP2;P2;SDS_P1;SDS_P2;PMS_P1;PMS_P2;Temp;Humidity;BMP_temperature;BMP_pressure;BME280_temperature;BME280_humidity;BME280_pressure;Samples;Min_cycle;Max_cycle;Signal;HPM_P1;HPM_P2
2022/11/15 00:00:17;;;;;;;7.32;4.15;;;;;;;15.05;65.03;96860.63;4910146;28;20373;-74
2022/11/15 00:02:42;;;;;;;5.30;3.95;;;;;;;14.97;65.46;96863.88;4887607;28;20210;-75
2022/11/15 00:05:07;;;;;;;5.15;3.65;;;;;;;15.00;65.41;96863.31;4911283;28;20252;-75
2022/11/15 00:07:37;;;;;;;6.13;4.20;;;;;;;14.79;66.50;96860.16;4911939;28;20243;-75
2022/11/15 00:10:03;;;;;;;5.65;3.90;;;;;;;14.98;65.71;96860.19;4915835;28;20713;-75
2022/11/15 00:12:28;;;;;;;5.28;3.58;;;;;;;14.97;65.56;96856.00;4910716;28;20285;-74
2022/11/15 00:14:54;;;;;;;4.88;3.90;;;;;;;15.00;65.47;96850.19;4895114;28;20307;-74
2022/11/15 00:17:19;;;;;;;4.85;3.58;;;;;;;14.91;66.04;96855.28;4910361;28;20375;-74
2022/11/15 00:19:45;;;;;;;3.97;3.55;;;;;;;14.95;65.98;96853.66;4915799;28;20170;-75
2022/11/15 00:22:10;;;;;;;8.88;3.78;;;;;;;15.01;65.53;96851.78;4906236;28;20252;-74
2022/11/15 00:24:35;;;;;;;5.15;3.60;;;;;;;14.93;66.00;96853.16;4879258;28;20283;-74
2022/11/15 00:27:01;;;;;;;4.80;3.53;;;;;;;14.95;66.28;96852.88;4913232;28;20186;-74
2022/11/15 00:29:26;;;;;;;4.00;3.33;;;;;;;14.97;66.01;96850.75;4889373;28;20212;-74
2022/11/15 00:31:52;;;;;;;4.72;3.17;;;;;;;14.76;66.88;96847.59;4910588;28;20305;-74
2022/11/15 00:34:17;;;;;;;5.03;3.15;;;;;;;14.98;66.58;96847.09;4899091;28;20189;-74
2022/11/15 00:36:43;;;;;;;5.18;3.55;;;;;;;15.03;65.82;96839.16;4919344;28;20630;-75
2022/11/15 00:39:08;;;;;;;5.57;3.92;;;;;;;14.97;65.94;96837.66;4909360;28;20178;-74
2022/11/15 00:41:34;;;;;;;5.40;3.50;;;;;;;15.02;66.28;96840.22;4928008;28;20184;-74
2022/11/15 00:43:59;;;;;;;5.88;3.30;;;;;;;14.95;66.73;96837.94;4932055;28;20225;-75
2022/11/15 00:46:24;;;;;;;3.83;3.38;;;;;;;15.07;65.88;96839.38;4876789;28;20236;-74
2022/11/15 00:48:50;;;;;;;5.10;3.22;;;;;;;15.02;66.22;96839.44;4897506;28;20247;-74
2022/11/15 00:51:15;;;;;;;4.63;2.97;;;;;;;14.93;66.43;96834.03;4896709;28;20331;-75
2022/11/15 00:53:40;;;;;;;3.55;2.88;;;;;;;14.76;67.09;96840.50;4899612;28;20185;-74
2022/11/15 00:56:06;;;;;;;7.47;3.45;;;;;;;14.97;66.00;96845.50;4912114;28;20287;-74
2022/11/15 00:58:31;;;;;;;3.92;3.47;;;;;;;14.67;67.55;96841.38;4881952;28;20239;-74
2022/11/15 01:01:11;;;;;;;4.38;3.40;;;;;;;14.92;67.14;96842.94;4909490;28;20193;-74
2022/11/15 01:03:37;;;;;;;4.20;3.50;;;;;;;14.79;67.53;96833.94;4894183;28;20271;-74
2022/11/15 01:06:03;;;;;;;5.88;3.35;;;;;;;15.03;66.84;96833.91;4918906;28;20189;-74
2022/11/15 01:08:28;;;;;;;4.63;3.47;;;;;;;15.14;66.18;96837.97;4910421;28;20286;-74
2022/11/15 01:10:54;;;;;;;6.63;3.33;;;;;;;14.93;67.20;96831.41;4912778;28;20263;-74
2022/11/15 01:13:19;;;;;;;5.25;3.20;;;;;;;15.12;66.60;96829.59;4912736;28;20230;-74
2022/11/15 01:15:44;;;;;;;5.95;3.28;;;;;;;15.14;65.85;96824.06;4899916;28;20283;-75
2022/11/15 01:18:10;;;;;;;3.95;3.53;;;;;;;15.21;65.70;96823.72;4896188;28;20332;-75
2022/11/15 01:20:40;;;;;;;5.20;3.33;;;;;;;15.11;66.57;96825.44;4895292;28;20296;-74
2022/11/15 01:23:05;;;;;;;4.35;3.20;;;;;;;15.01;66.40;96819.50;4901174;28;20177;-74
2022/11/15 01:25:31;;;;;;;5.53;3.17;;;;;;;15.03;66.43;96823.44;4912434;28;20217;-74
2022/11/15 01:27:56;;;;;;;4.72;3.53;;;;;;;15.11;66.21;96817.56;4919734;28;20347;-75
2022/11/15 01:30:21;;;;;;;2.90;2.33;;;;;;;15.00;66.49;96823.22;4911758;28;20722;-74
2022/11/15 01:32:47;;;;;;;5.18;2.80;;;;;;;15.10;65.87;96823.84;4916272;28;20209;-74
2022/11/15 01:35:12;;;;;;;2.80;2.30;;;;;;;15.13;65.75;96812.00;4918215;28;20197;-75
2022/11/15 01:37:38;;;;;;;4.57;2.42;;;;;;;14.99;66.19;96814.53;4883266;28;20385;-74
2022/11/15 01:40:03;;;;;;;3.45;2.67;;;;;;;15.05;65.91;96813.44;4904350;28;20630;-74
2022/11/15 01:42:29;;;;;;;4.95;2.78;;;;;;;15.08;65.87;96810.25;4920287;28;20200;-74
2022/11/15 01:44:54;;;;;;;5.07;2.70;;;;;;;14.87;66.82;96809.72;4906549;28;20194;-73
2022/11/15 01:47:24;;;;;;;4.05;2.78;;;;;;;14.57;67.89;96813.44;4923219;28;20212;-74
2022/11/15 01:49:51;;;;;;;4.53;2.90;;;;;;;14.89;66.68;96806.81;4916080;28;20235;-74
2022/11/15 01:52:19;;;;;;;3.63;2.22;;;;;;;15.03;66.31;96799.03;4905101;28;20713;-75
2022/11/15 01:54:45;;;;;;;4.45;3.17;;;;;;;14.88;66.63;96792.16;4903693;28;20221;-74
2022/11/15 01:57:11;;;;;;;3.15;2.20;;;;;;;15.04;65.69;96793.50;4901210;28;20383;-75
2022/11/15 01:59:40;;;;;;;3.92;2.50;;;;;;;15.16;65.23;96796.53;4911223;28;20654;-74
2022/11/15 02:02:06;;;;;;;5.80;2.88;;;;;;;14.98;65.93;96795.44;4903418;28;20252;-74
2022/11/15 02:04:35;;;;;;;3.08;2.50;;;;;;;15.14;65.50;96785.50;4894709;28;20272;-74
2022/11/15 02:07:02;;;;;;;3.13;2.40;;;;;;;15.09;65.69;96775.09;4901129;28;20685;-72
2022/11/15 02:09:27;;;;;;;4.18;2.70;;;;;;;15.11;65.72;96777.44;4900325;28;20174;-74
2022/11/15 02:11:53;;;;;;;3.35;2.97;;;;;;;15.07;66.20;96776.44;4903307;28;20622;-74
2022/11/15 02:14:19;;;;;;;3.10;2.72;;;;;;;15.20;65.22;96769.69;4902895;28;20721;-74
2022/11/15 02:17:04;;;;;;;3.67;2.25;;;;;;;15.41;64.73;96767.59;4921271;28;20189;-74
2022/11/15 02:19:32;;;;;;;3.90;2.70;;;;;;;15.47;64.49;96769.84;4898423;28;20770;-74
2022/11/15 02:22:28;;;;;;;4.22;2.67;;;;;;;15.36;64.96;96763.19;4897850;28;20166;-74
2022/11/15 02:25:03;;;;;;;3.80;2.53;;;;;;;15.25;65.15;96759.13;4917442;28;20209;-74
2022/11/15 02:28:06;;;;;;;3.57;3.10;;;;;;;15.49;64.85;96753.81;4912819;28;20382;-73
2022/11/15 02:30:52;;;;;;;5.43;2.70;;;;;;;15.43;64.79;96755.72;4896873;28;20178;-74
2022/11/15 02:33:34;;;;;;;4.75;2.83;;;;;;;15.29;64.91;96753.06;4940320;28;20162;-74
2022/11/15 02:36:11;;;;;;;3.65;2.88;;;;;;;15.58;64.42;96748.72;4891056;28;20182;-74
2022/11/15 02:38:42;;;;;;;4.18;2.95;;;;;;;15.41;64.40;96749.22;4917379;28;20651;-74
2022/11/15 02:41:14;;;;;;;4.22;2.67;;;;;;;15.43;64.42;96741.84;4931850;28;20285;-74
2022/11/15 02:43:58;;;;;;;6.00;2.88;;;;;;;15.36;64.83;96742.97;4902870;28;20199;-74
2022/11/15 02:49:19;;;;;;;5.10;3.25;;;;;;;15.33;64.24;96732.28;4910412;28;20181;-74
2022/11/15 02:51:46;;;;;;;3.67;2.50;;;;;;;15.31;65.19;96729.94;4918860;28;20210;-74
2022/11/15 02:54:14;;;;;;;3.30;2.83;;;;;;;15.40;64.77;96727.44;4900934;28;20166;-75
2022/11/15 02:56:40;;;;;;;3.53;2.90;;;;;;;15.15;65.43;96737.25;4898242;28;20273;-74
2022/11/15 02:59:14;;;;;;;3.90;2.83;;;;;;;15.34;65.03;96732.00;4918404;28;20233;-74
2022/11/15 03:02:13;;;;;;;3.58;3.15;;;;;;;15.57;64.81;96734.00;4896725;28;20365;-74
2022/11/15 03:04:53;;;;;;;4.00;2.95;;;;;;;15.59;64.00;96735.28;4914049;28;20186;-75
2022/11/15 03:07:26;;;;;;;3.30;2.13;;;;;;;15.62;64.07;96733.94;4900770;28;20194;-74
2022/11/15 03:10:02;;;;;;;3.90;2.90;;;;;;;15.36;65.16;96731.72;4911112;28;20235;-74
2022/11/15 03:12:50;;;;;;;3.72;2.67;;;;;;;15.37;65.38;96735.91;4902505;28;20216;-74
2022/11/15 03:15:32;;;;;;;3.95;2.17;;;;;;;15.42;64.83;96735.03;4914929;28;20687;-75
2022/11/15 03:18:05;;;;;;;4.63;2.60;;;;;;;15.35;65.15;96745.88;4925031;28;20268;-74
2022/11/15 03:20:31;;;;;;;2.75;2.35;;;;;;;15.21;65.63;96735.34;4920107;28;20227;-74
2022/11/15 03:23:02;;;;;;;4.57;2.85;;;;;;;15.47;64.86;96734.94;4899746;28;20276;-74
2022/11/15 03:25:28;;;;;;;3.97;2.50;;;;;;;15.44;65.05;96731.06;4915558;28;20249;-74
2022/11/15 03:27:56;;;;;;;7.72;2.45;;;;;;;15.39;65.35;96727.72;4896842;28;20209;-74
2022/11/15 03:30:21;;;;;;;3.42;2.60;;;;;;;15.40;65.17;96726.66;4895435;28;20201;-73
2022/11/15 03:32:56;;;;;;;2.85;2.60;;;;;;;15.52;65.07;96733.03;4899113;28;20705;-74
2022/11/15 03:35:23;;;;;;;3.85;3.00;;;;;;;15.53;64.68;96734.59;4916535;28;20209;-75
2022/11/15 03:37:48;;;;;;;2.65;2.08;;;;;;;15.49;64.85;96730.19;4898952;28;20209;-75
2022/11/15 03:40:14;;;;;;;4.00;2.90;;;;;;;15.23;65.63;96729.81;4912110;28;20107;-74
2022/11/15 03:42:48;;;;;;;3.85;2.55;;;;;;;15.46;65.15;96728.94;4901884;28;20428;-74
2022/11/15 03:45:23;;;;;;;2.80;2.38;;;;;;;15.59;64.71;96729.25;4912736;28;20201;-74
2022/11/15 03:48:20;;;;;;;3.03;2.35;;;;;;;15.26;65.81;96735.25;4913915;28;20288;-74
2022/11/15 03:50:45;;;;;;;3.58;2.63;;;;;;;15.41;65.25;96729.00;4877325;28;20643;-74
2022/11/15 03:53:12;;;;;;;3.78;2.60;;;;;;;15.55;64.86;96739.53;4898954;28;20276;-74
2022/11/15 03:55:37;;;;;;;2.50;2.20;;;;;;;15.26;65.07;96732.63;4906762;28;20591;-74
2022/11/15 03:58:02;;;;;;;3.33;3.03;;;;;;;15.37;65.17;96728.03;4916709;28;20296;-74
2022/11/15 04:00:28;;;;;;;3.28;2.50;;;;;;;15.20;66.01;96722.50;4916729;28;20159;-74
2022/11/15 04:02:54;;;;;;;3.72;2.20;;;;;;;15.34;65.41;96723.34;4916677;28;20197;-74
2022/11/15 04:05:19;;;;;;;2.47;2.13;;;;;;;15.39;64.74;96725.91;4916437;28;20426;-74
2022/11/15 04:07:45;;;;;;;2.92;2.17;;;;;;;15.49;64.63;96720.50;4918613;28;20644;-74
2022/11/15 04:10:10;;;;;;;3.72;2.88;;;;;;;15.44;64.91;96725.81;4917621;28;20253;-74
2022/11/15 04:12:39;;;;;;;2.53;2.08;;;;;;;15.22;66.01;96728.25;4898811;28;20615;-74
2022/11/15 04:15:10;;;;;;;2.33;2.13;;;;;;;15.38;65.62;96708.59;4918266;28;20337;-74
2022/11/15 04:17:56;;;;;;;2.65;2.30;;;;;;;15.45;65.24;96724.72;4908183;28;20619;-74
2022/11/15 04:26:11;;;;;;;3.22;2.25;;;;;;;15.50;65.30;96716.00;4929367;28;20634;-74
2022/11/15 04:29:33;;;;;;;2.50;1.77;;;;;;;15.53;64.74;96708.34;4928604;28;20639;-74
2022/11/15 04:31:25;;;;;;;4.88;2.47;;;;;;;15.44;64.69;96699.59;4901269;28;20272;-74
2022/11/15 04:33:51;;;;;;;2.00;1.80;;;;;;;15.36;65.10;96694.97;4896838;28;20162;-74
2022/11/15 04:39:00;;;;;;;2.30;1.65;;;;;;;15.43;64.56;96699.88;4896646;28;20284;-74
2022/11/15 04:41:26;;;;;;;2.88;1.70;;;;;;;15.33;64.98;96698.19;4939979;28;20802;-74
2022/11/15 04:43:51;;;;;;;2.25;2.05;;;;;;;15.40;64.51;96695.19;4914084;28;20150;-75
2022/11/15 04:46:17;;;;;;;2.58;2.38;;;;;;;15.34;64.57;96694.50;4894917;28;20232;-74
2022/11/15 04:48:42;;;;;;;2.13;1.77;;;;;;;15.29;64.30;96694.56;4917957;28;20193;-74
2022/11/15 04:51:07;;;;;;;2.58;2.05;;;;;;;15.29;64.40;96702.44;4934370;28;20371;-73
2022/11/15 04:53:33;;;;;;;2.75;1.58;;;;;;;15.13;64.57;96697.44;4898261;28;20283;-74
2022/11/15 04:55:58;;;;;;;2.25;1.70;;;;;;;15.13;64.60;96694.81;4898899;28;20705;-74
2022/11/15 04:58:23;;;;;;;2.78;1.83;;;;;;;15.06;64.99;96699.63;4901580;28;20830;-75
2022/11/15 05:00:49;;;;;;;2.28;1.60;;;;;;;15.06;65.08;96704.88;4881185;28;20277;-74
2022/11/15 05:05:58;;;;;;;2.13;1.63;;;;;;;14.90;65.62;96698.28;4918097;28;20344;-74
2022/11/15 05:08:24;;;;;;;1.58;1.48;;;;;;;14.80;65.59;96691.34;4909288;28;20187;-74
2022/11/15 05:10:49;;;;;;;2.63;1.73;;;;;;;14.80;65.05;96680.84;4912034;28;20217;-74
2022/11/15 05:13:15;;;;;;;2.80;2.00;;;;;;;14.64;65.63;96680.28;4916410;28;20201;-74
2022/11/15 05:15:40;;;;;;;2.22;1.88;;;;;;;14.75;65.30;96676.47;4920286;28;20211;-74
2022/11/15 05:18:05;;;;;;;1.55;1.27;;;;;;;14.71;65.26;96680.72;4897116;28;20272;-74
2022/11/15 05:20:31;;;;;;;3.03;1.45;;;;;;;14.70;65.41;96681.00;4901044;28;20129;-74
2022/11/15 05:22:56;;;;;;;1.75;1.40;;;;;;;14.57;65.94;96683.22;4899534;28;20678;-75
2022/11/15 05:25:22;;;;;;;2.25;1.40;;;;;;;14.55;65.86;96692.44;4917581;28;20325;-73
2022/11/15 05:27:48;;;;;;;2.00;1.67;;;;;;;14.66;65.42;96682.63;4924269;28;20196;-74
2022/11/15 05:30:14;;;;;;;2.17;1.55;;;;;;;14.69;64.96;96682.84;4917476;28;20211;-74
2022/11/15 05:32:39;;;;;;;4.25;1.92;;;;;;;14.50;65.69;96674.16;4922061;28;20271;-74
2022/11/15 05:35:06;;;;;;;2.80;1.80;;;;;;;14.51;65.90;96675.72;4934387;28;20293;-74
2022/11/15 05:37:32;;;;;;;2.33;1.80;;;;;;;14.43;66.31;96671.88;4918231;28;20109;-74
2022/11/15 05:39:57;;;;;;;2.42;1.50;;;;;;;14.38;66.50;96677.97;4921070;28;20294;-74
2022/11/15 05:42:24;;;;;;;2.00;1.70;;;;;;;14.49;65.89;96667.34;4900038;28;20238;-74
2022/11/15 05:44:50;;;;;;;1.90;1.70;;;;;;;14.46;65.80;96673.16;4903174;28;20261;-74
2022/11/15 05:47:25;;;;;;;2.95;1.70;;;;;;;14.62;65.73;96674.56;4916622;28;20632;-75
2022/11/15 05:49:52;;;;;;;1.83;1.30;;;;;;;14.64;65.20;96672.44;4912963;28;20208;-75
2022/11/15 05:52:20;;;;;;;3.35;1.60;;;;;;;14.69;65.36;96680.22;4917131;28;20182;-74
2022/11/15 05:54:45;;;;;;;2.80;1.63;;;;;;;14.68;65.23;96686.50;4902393;28;20193;-74
2022/11/15 05:57:11;;;;;;;2.45;1.35;;;;;;;14.63;65.47;96683.19;4923426;28;20196;-75
2022/11/15 05:59:37;;;;;;;2.10;1.13;;;;;;;14.73;65.42;96677.81;4948805;28;20171;-74
2022/11/15 06:02:02;;;;;;;2.20;1.38;;;;;;;14.64;64.88;96675.03;4901695;28;20198;-74
2022/11/15 06:04:28;;;;;;;1.65;1.48;;;;;;;14.60;65.25;96680.06;4901434;28;20694;-74
2022/11/15 06:06:55;;;;;;;2.08;1.42;;;;;;;14.57;65.66;96674.59;4914895;28;20635;-75
2022/11/15 06:09:21;;;;;;;2.58;1.67;;;;;;;14.59;65.15;96690.84;4899765;28;20425;-75
2022/11/15 06:11:47;;;;;;;2.42;1.40;;;;;;;14.53;65.00;96676.19;4911804;28;20193;-74
2022/11/15 06:14:13;;;;;;;1.70;1.60;;;;;;;14.46;65.68;96684.41;4924179;28;20216;-75
2022/11/15 06:16:38;;;;;;;1.83;1.50;;;;;;;14.48;65.40;96676.25;4910354;28;20205;-74
2022/11/15 06:19:05;;;;;;;2.28;1.40;;;;;;;14.50;65.24;96677.56;4904020;28;20197;-75
2022/11/15 06:21:31;;;;;;;2.22;1.33;;;;;;;14.45;65.19;96682.84;4900491;28;20646;-74
2022/11/15 06:23:56;;;;;;;1.50;1.40;;;;;;;14.40;65.78;96675.84;4916481;28;20151;-74
2022/11/15 06:26:21;;;;;;;2.80;1.63;;;;;;;14.45;65.42;96676.84;4906482;28;20298;-74
2022/11/15 06:28:47;;;;;;;2.40;1.40;;;;;;;14.42;65.29;96673.72;4899523;28;20200;-74
2022/11/15 06:31:12;;;;;;;2.00;1.77;;;;;;;14.42;65.49;96668.47;4915362;28;20217;-75
2022/11/15 06:33:38;;;;;;;1.77;1.35;;;;;;;14.47;65.41;96675.50;4899137;28;20286;-74
2022/11/15 06:36:09;;;;;;;2.63;1.60;;;;;;;14.60;64.92;96679.31;4901111;28;20189;-74
2022/11/15 06:38:35;;;;;;;1.80;1.55;;;;;;;14.52;65.73;96682.50;4916799;28;20604;-75
2022/11/15 06:41:02;;;;;;;3.90;1.80;;;;;;;14.50;65.31;96684.66;4897857;28;20204;-75
2022/11/15 06:43:27;;;;;;;1.50;1.40;;;;;;;14.50;65.30;96679.41;4918897;28;20680;-74
2022/11/15 06:45:52;;;;;;;2.22;1.38;;;;;;;14.53;65.41;96684.84;4917653;28;20204;-75
2022/11/15 06:48:18;;;;;;;2.17;1.50;;;;;;;14.50;65.71;96687.25;4919118;28;20212;-74
2022/11/15 06:50:50;;;;;;;3.20;1.35;;;;;;;14.62;65.79;96687.66;4951282;28;20717;-75
2022/11/15 06:53:16;;;;;;;2.17;1.77;;;;;;;14.52;65.63;96693.00;4897779;28;20788;-75
2022/11/15 06:55:41;;;;;;;2.80;1.52;;;;;;;14.47;65.68;96695.69;4921278;28;20271;-75
2022/11/15 06:58:06;;;;;;;3.05;1.75;;;;;;;14.49;65.76;96696.16;4885410;28;20559;-75
2022/11/15 07:00:32;;;;;;;2.35;1.83;;;;;;;14.50;66.20;96695.13;4920712;28;20170;-75
2022/11/15 07:03:00;;;;;;;5.50;2.80;;;;;;;14.53;66.47;96684.06;4917419;28;20714;-75
2022/11/15 07:05:26;;;;;;;2.15;1.80;;;;;;;14.62;65.33;96692.91;4915991;28;20267;-75
2022/11/15 07:07:53;;;;;;;5.32;2.00;;;;;;;14.53;66.18;96689.28;4901334;28;20743;-74
2022/11/15 07:10:18;;;;;;;2.60;1.88;;;;;;;14.60;65.95;96695.78;4912443;28;20155;-74
2022/11/15 07:12:49;;;;;;;2.40;1.80;;;;;;;14.71;65.71;96688.56;4923251;28;20200;-75
2022/11/15 07:15:19;;;;;;;2.05;1.50;;;;;;;14.73;65.35;96689.06;4914938;28;20248;-75
2022/11/15 07:17:44;;;;;;;1.77;1.40;;;;;;;14.65;65.60;96686.28;4918903;28;20166;-74
2022/11/15 07:20:10;;;;;;;3.08;1.73;;;;;;;14.68;65.65;96690.97;4946934;28;20463;-75
2022/11/15 07:22:35;;;;;;;3.38;1.90;;;;;;;14.38;66.47;96696.28;4912671;28;20301;-75
2022/11/15 07:25:00;;;;;;;1.85;1.67;;;;;;;14.65;65.30;96692.34;4919653;28;20174;-74
2022/11/15 07:27:26;;;;;;;1.98;1.58;;;;;;;14.63;65.46;96694.44;4912716;28;20197;-75
2022/11/15 07:29:51;;;;;;;2.03;1.60;;;;;;;14.59;65.78;96696.06;4915829;28;20276;-74
2022/11/15 07:32:16;;;;;;;3.50;2.22;;;;;;;14.59;65.90;96693.44;4915005;28;20255;-75
2022/11/15 07:34:42;;;;;;;2.92;1.67;;;;;;;14.65;65.53;96696.78;4872335;28;20263;-75
2022/11/15 07:37:07;;;;;;;2.00;1.80;;;;;;;14.60;65.84;96690.56;4921066;28;20275;-74
2022/11/15 07:39:33;;;;;;;3.83;1.73;;;;;;;14.66;65.91;96698.34;4943442;28;20213;-74
2022/11/15 07:44:43;;;;;;;3.00;2.10;;;;;;;14.66;65.51;96690.50;4894610;28;20217;-75
2022/11/15 07:47:08;;;;;;;4.80;2.60;;;;;;;14.64;65.66;96687.38;4916594;28;20930;-75
2022/11/15 07:49:33;;;;;;;4.50;3.00;;;;;;;14.64;66.05;96680.28;4896156;28;20282;-75
2022/11/15 07:51:59;;;;;;;4.25;2.72;;;;;;;14.67;65.91;96682.34;4914221;28;20206;-74
2022/11/15 07:54:24;;;;;;;2.92;2.63;;;;;;;14.73;65.67;96683.81;4920638;28;20244;-75
2022/11/15 07:56:49;;;;;;;3.67;2.22;;;;;;;14.78;65.72;96686.38;4923847;28;20276;-75
2022/11/15 07:59:15;;;;;;;1.98;1.80;;;;;;;14.88;65.26;96684.69;4892577;28;20295;-75
2022/11/15 08:01:40;;;;;;;4.45;2.17;;;;;;;14.93;65.33;96688.00;4931557;28;20340;-75
2022/11/15 08:04:05;;;;;;;2.85;2.35;;;;;;;14.95;65.32;96691.13;4929655;28;20292;-74
2022/11/15 08:06:31;;;;;;;2.92;2.30;;;;;;;15.02;65.14;96682.13;4921478;28;20581;-75
2022/11/15 08:08:56;;;;;;;3.30;2.10;;;;;;;14.94;65.92;96681.72;4908110;28;20671;-75
2022/11/15 08:11:21;;;;;;;2.92;1.80;;;;;;;15.01;65.48;96681.38;4922256;28;20253;-75
2022/11/15 08:13:47;;;;;;;4.45;2.00;;;;;;;15.06;65.18;96673.41;4901561;28;20209;-74
2022/11/15 08:16:12;;;;;;;3.90;2.10;;;;;;;15.07;65.16;96682.81;4919506;28;20197;-75
2022/11/15 08:18:37;;;;;;;2.53;2.00;;;;;;;15.13;65.07;96683.53;4934148;28;20226;-75
2022/11/15 08:21:03;;;;;;;2.28;1.80;;;;;;;15.19;64.90;96689.50;4920268;28;20278;-75
2022/11/15 08:23:29;;;;;;;3.15;1.80;;;;;;;15.22;64.73;96687.06;4913062;28;20217;-75
2022/11/15 08:26:02;;;;;;;2.58;1.70;;;;;;;15.22;65.01;96678.44;4918295;28;20624;-75
2022/11/15 08:28:27;;;;;;;3.10;2.80;;;;;;;15.31;64.34;96676.69;4943138;28;20212;-75
2022/11/15 08:30:52;;;;;;;2.40;1.60;;;;;;;15.35;64.34;96682.91;4894296;28;20764;-75
2022/11/15 08:33:18;;;;;;;3.67;1.88;;;;;;;15.39;64.54;96683.13;4915896;28;20687;-75
2022/11/15 08:35:43;;;;;;;2.72;1.70;;;;;;;15.43;64.45;96679.66;4895498;28;20209;-74
2022/11/15 08:38:09;;;;;;;2.40;1.60;;;;;;;15.48;64.40;96676.16;4876901;28;20248;-75
2022/11/15 08:40:35;;;;;;;2.80;1.83;;;;;;;15.49;64.24;96675.88;4913491;28;20223;-74
2022/11/15 08:43:02;;;;;;;3.33;2.05;;;;;;;15.49;64.44;96672.47;4900576;28;20678;-75
2022/11/15 08:45:28;;;;;;;2.22;1.98;;;;;;;15.48;64.70;96666.44;4916187;28;20493;-75
2022/11/15 08:47:54;;;;;;;3.60;2.20;;;;;;;15.39;64.63;96670.81;4902305;28;20279;-75
2022/11/15 08:50:19;;;;;;;1.95;1.75;;;;;;;15.49;64.11;96661.97;4907034;28;20346;-75
2022/11/15 08:52:44;;;;;;;3.53;2.00;;;;;;;15.68;63.01;96669.81;4907281;28;20694;-75
2022/11/15 08:55:10;;;;;;;2.10;1.85;;;;;;;15.65;63.63;96659.88;4907264;28;20192;-75
2022/11/15 08:57:35;;;;;;;2.03;1.63;;;;;;;15.64;64.10;96661.72;4927531;28;20166;-75
2022/11/15 09:00:01;;;;;;;4.05;2.00;;;;;;;15.73;63.54;96656.59;4927648;28;20332;-75
2022/11/15 09:02:26;;;;;;;3.63;2.17;;;;;;;15.71;64.05;96659.50;4923382;28;20205;-74
2022/11/15 09:04:51;;;;;;;2.55;2.17;;;;;;;15.79;63.91;96654.69;4910042;28;20239;-75
2022/11/15 09:07:17;;;;;;;5.88;2.15;;;;;;;15.79;63.59;96649.44;4910363;28;20239;-75
2022/11/15 09:09:42;;;;;;;1.92;1.67;;;;;;;15.96;63.38;96654.09;4905286;28;20244;-74
2022/11/15 09:12:08;;;;;;;2.88;1.90;;;;;;;16.11;62.47;96651.19;4923804;28;20229;-75
2022/11/15 09:14:33;;;;;;;2.03;1.55;;;;;;;16.04;62.90;96654.19;4923641;28;20342;-75
2022/11/15 09:16:59;;;;;;;4.03;1.90;;;;;;;16.01;62.92;96649.53;4926621;28;20315;-75
2022/11/15 09:19:25;;;;;;;2.97;2.03;;;;;;;16.10;62.74;96639.88;4919815;28;20228;-75
2022/11/15 09:21:50;;;;;;;2.97;1.73;;;;;;;16.13;63.24;96648.28;4910255;28;20208;-74
2022/11/15 09:24:17;;;;;;;4.25;1.80;;;;;;;16.24;62.51;96641.72;4910749;28;20204;-75
2022/11/15 09:26:42;;;;;;;2.33;1.40;;;;;;;16.20;62.04;96644.16;4929045;28;20208;-75
2022/11/15 09:29:08;;;;;;;1.70;1.55;;;;;;;16.15;62.37;96641.66;4943384;28;20248;-75
2022/11/15 09:31:33;;;;;;;2.40;1.88;;;;;;;16.15;61.95;96644.28;4910246;28;20709;-75
2022/11/15 09:33:58;;;;;;;2.78;1.50;;;;;;;16.20;61.85;96638.91;4926796;28;20278;-75
2022/11/15 09:36:24;;;;;;;3.45;1.65;;;;;;;16.23;61.39;96643.59;4910312;28;20173;-75
2022/11/15 09:38:49;;;;;;;2.10;1.50;;;;;;;16.26;61.70;96642.22;4925461;28;20230;-75
2022/11/15 09:41:14;;;;;;;2.10;1.83;;;;;;;16.27;61.38;96649.81;4904086;28;20762;-75
2022/11/15 09:44:04;;;;;;;2.38;1.85;;;;;;;16.27;61.51;96644.53;4928380;28;20431;-75
2022/11/15 09:46:51;;;;;;;3.30;2.22;;;;;;;16.55;60.94;96641.88;4926083;28;20166;-74
2022/11/15 09:49:20;;;;;;;2.63;1.50;;;;;;;16.42;60.83;96640.84;4910763;28;20630;-75
2022/11/15 09:51:49;;;;;;;1.85;1.33;;;;;;;16.55;60.94;96638.47;4906734;28;20197;-75
2022/11/15 09:54:35;;;;;;;1.63;1.30;;;;;;;16.66;60.60;96645.84;4910093;28;20205;-75
2022/11/15 09:57:18;;;;;;;2.13;1.63;;;;;;;16.67;60.52;96647.41;4910248;28;20153;-75
2022/11/15 10:00:02;;;;;;;1.83;1.40;;;;;;;16.55;61.11;96649.75;4907038;28;20189;-75
2022/11/15 10:02:46;;;;;;;2.05;1.30;;;;;;;16.65;61.03;96652.16;4915516;28;20205;-75
2022/11/15 10:05:15;;;;;;;1.75;1.40;;;;;;;16.61;61.43;96645.19;4924770;28;20537;-75
2022/11/15 10:07:49;;;;;;;1.38;1.15;;;;;;;16.63;61.22;96641.16;4925923;28;20248;-75
2022/11/15 10:10:18;;;;;;;2.35;1.30;;;;;;;16.45;61.68;96632.38;4919506;28;20205;-74
2022/11/15 10:12:46;;;;;;;2.38;1.45;;;;;;;16.46;60.78;96630.50;4926032;28;20193;-75
2022/11/15 10:15:14;;;;;;;1.20;1.02;;;;;;;16.46;60.54;96614.75;4907712;28;20304;-75
2022/11/15 10:17:39;;;;;;;1.52;1.15;;;;;;;16.60;60.05;96612.84;4938728;28;20271;-75
2022/11/15 10:20:21;;;;;;;1.70;1.30;;;;;;;16.84;60.22;96606.56;4926053;28;20255;-74
2022/11/15 10:22:51;;;;;;;1.58;0.88;;;;;;;16.78;59.79;96594.59;4903044;28;20297;-74
2022/11/15 10:25:23;;;;;;;1.48;1.38;;;;;;;17.00;59.35;96586.72;4909850;28;20568;-74
2022/11/15 10:27:59;;;;;;;1.80;0.90;;;;;;;17.23;58.11;96581.44;4909713;28;20192;-74
2022/11/15 10:30:52;;;;;;;1.08;1.00;;;;;;;17.26;57.46;96577.44;4926112;28;20357;-75
2022/11/15 10:33:34;;;;;;;2.35;0.90;;;;;;;17.20;57.36;96574.16;4915946;28;20170;-74
2022/11/15 10:36:09;;;;;;;1.13;0.80;;;;;;;17.10;56.77;96562.03;4893128;28;20290;-75
2022/11/15 10:38:49;;;;;;;1.20;1.10;;;;;;;17.36;56.15;96564.03;4927584;28;20183;-74
2022/11/15 10:41:17;;;;;;;1.00;0.88;;;;;;;17.23;57.11;96558.53;4919783;28;20284;-74
2022/11/15 10:43:43;;;;;;;2.10;0.90;;;;;;;17.20;56.91;96555.72;4941672;28;20216;-74
2022/11/15 10:46:23;;;;;;;1.67;1.02;;;;;;;17.41;57.33;96543.63;4941475;28;20291;-74
2022/11/15 10:48:48;;;;;;;1.50;0.80;;;;;;;17.28;57.49;96539.22;4925309;28;20265;-74
2022/11/15 10:51:25;;;;;;;1.52;0.60;;;;;;;17.20;57.42;96534.69;4916460;28;20252;-75
2022/11/15 10:53:51;;;;;;;1.13;0.70;;;;;;;17.24;57.80;96533.03;4918455;28;20205;-75
2022/11/15 10:56:21;;;;;;;1.52;0.90;;;;;;;17.28;57.22;96533.19;4925191;28;20239;-74
2022/11/15 10:58:51;;;;;;;1.60;0.90;;;;;;;17.47;57.48;96525.06;4909185;28;20166;-74
2022/11/15 11:01:20;;;;;;;0.80;0.80;;;;;;;17.54;57.07;96525.38;4918355;28;20693;-74
2022/11/15 11:04:07;;;;;;;1.77;0.93;;;;;;;17.68;56.29;96528.66;4920788;28;20217;-74
2022/11/15 11:06:58;;;;;;;3.28;1.02;;;;;;;17.74;56.77;96524.81;4892921;28;20235;-74
2022/11/15 11:09:38;;;;;;;2.13;0.70;;;;;;;17.54;57.84;96525.38;4920139;28;20189;-74
2022/11/15 11:12:05;;;;;;;1.55;0.80;;;;;;;17.74;56.34;96516.16;4911864;28;20184;-73
2022/11/15 11:14:33;;;;;;;1.20;0.95;;;;;;;17.78;56.47;96520.47;4909063;28;20642;-75
2022/11/15 11:17:11;;;;;;;1.15;0.90;;;;;;;18.02;56.33;96523.81;4918645;28;20181;-74
2022/11/15 11:20:07;;;;;;;1.80;0.82;;;;;;;18.08;55.82;96518.09;4924855;28;20208;-74
2022/11/15 11:22:39;;;;;;;0.85;0.85;;;;;;;18.04;55.61;96511.88;4892291;28;20196;-75
2022/11/15 11:25:26;;;;;;;1.77;1.10;;;;;;;18.21;56.06;96515.63;4924131;28;20263;-74
2022/11/15 11:28:00;;;;;;;1.00;0.80;;;;;;;18.05;55.30;96502.91;4924939;28;20188;-74
2022/11/15 11:30:35;;;;;;;0.90;0.80;;;;;;;18.06;54.59;96509.72;4924693;28;20290;-74
2022/11/15 11:33:03;;;;;;;1.00;0.60;;;;;;;18.18;54.28;96495.94;4924533;28;20208;-75
2022/11/15 11:35:49;;;;;;;0.93;0.60;;;;;;;18.26;54.42;96502.28;4908437;28;20198;-74
2022/11/15 11:38:20;;;;;;;;;;;;;;;18.33;53.59;96492.84;4925202;28;20787;-74
2022/11/15 11:41:10;;;;;;;1.10;1.00;;;;;;;18.11;54.32;96496.41;4922906;28;20088;-74
2022/11/15 11:43:51;;;;;;;0.82;0.50;;;;;;;17.99;53.74;96488.31;4901755;28;20654;-74
2022/11/15 11:46:35;;;;;;;1.52;0.77;;;;;;;18.24;53.37;96483.38;4907776;28;20535;-74
2022/11/15 11:49:23;;;;;;;1.42;0.57;;;;;;;18.35;53.91;96481.97;4926386;28;20205;-74
2022/11/15 11:52:18;;;;;;;0.93;0.80;;;;;;;17.84;54.84;96486.09;4917339;28;20247;-75
2022/11/15 11:55:05;;;;;;;0.80;0.80;;;;;;;18.13;54.16;96472.38;4892293;28;20231;-74
2022/11/15 11:57:53;;;;;;;1.10;0.80;;;;;;;17.84;53.95;96462.41;4908240;28;20277;-74
2022/11/15 12:00:21;;;;;;;1.35;0.77;;;;;;;17.55;55.29;96474.31;4902070;28;20276;-73